You are listening to:
KSDF Ground/Tower #1 - Louisville, Kentucky, United States

KSDF 151756Z 24010KT 10SM FEW040 BKN140 OVC200 31/22 A3013 RMK AO2 SLP197 T03060217 10317 20256 58000

If stream does not start automatically press the play button